createdAt,value
2023-03-05T00:00:55.026Z,64.25
2023-03-05T00:03:29.824Z,64.46
2023-03-05T00:06:01.210Z,64.38
2023-03-05T00:08:32.640Z,64.40
2023-03-05T00:11:06.652Z,64.44
2023-03-05T00:13:37.962Z,64.34
2023-03-05T00:16:10.785Z,64.28
2023-03-05T00:18:41.779Z,64.43
2023-03-05T00:21:21.498Z,64.43
2023-03-05T00:23:53.289Z,64.34
2023-03-05T00:26:26.169Z,64.16
2023-03-05T00:28:58.330Z,64.12
2023-03-05T00:31:31.331Z,63.96
2023-03-05T00:34:04.609Z,63.80
2023-03-05T00:36:39.006Z,63.75
2023-03-05T00:39:09.733Z,63.81
2023-03-05T00:41:40.824Z,63.66
2023-03-05T00:44:09.984Z,63.55
2023-03-05T00:46:40.952Z,63.74
2023-03-05T00:49:10.261Z,63.71
2023-03-05T00:51:40.957Z,63.86
2023-03-05T00:54:11.979Z,63.75
2023-03-05T00:56:42.647Z,63.92
2023-03-05T00:59:13.355Z,64.08
2023-03-05T01:01:44.090Z,64.08
2023-03-05T01:04:14.747Z,64.35
2023-03-05T01:06:45.435Z,64.13
2023-03-05T01:09:16.159Z,64.09
2023-03-05T01:11:46.829Z,64.22
2023-03-05T01:14:17.517Z,63.99
2023-03-05T01:16:48.265Z,63.71
2023-03-05T01:19:18.926Z,63.70
2023-03-05T01:21:49.578Z,63.85
2023-03-05T01:24:20.208Z,63.91
2023-03-05T01:26:51.180Z,63.72
2023-03-05T01:29:21.862Z,63.83
2023-03-05T01:31:52.513Z,63.73
2023-03-05T01:34:23.232Z,63.74
2023-03-05T01:36:53.859Z,64.02
2023-03-05T01:39:24.507Z,63.90
2023-03-05T01:41:55.087Z,63.94
2023-03-05T01:44:27.413Z,63.83
2023-03-05T01:46:58.157Z,63.79
2023-03-05T01:49:30.824Z,63.83
2023-03-05T01:52:07.530Z,64.03
2023-03-05T01:54:42.602Z,63.89
2023-03-05T01:57:18.179Z,64.07
2023-03-05T01:59:52.586Z,64.11
2023-03-05T02:02:23.511Z,64.00
2023-03-05T02:05:00.774Z,64.10
2023-03-05T02:07:32.179Z,63.96
2023-03-05T02:10:03.044Z,63.89
2023-03-05T02:12:33.728Z,63.88
2023-03-05T02:15:05.303Z,63.94
2023-03-05T02:17:36.199Z,64.08
2023-03-05T02:20:16.727Z,63.95
2023-03-05T02:22:47.417Z,64.07
2023-03-05T02:25:21.013Z,63.93
2023-03-05T02:27:58.544Z,63.92
2023-03-05T02:30:34.201Z,64.09
2023-03-05T02:33:05.066Z,64.09
2023-03-05T02:35:36.061Z,64.17
2023-03-05T02:38:06.766Z,64.12
2023-03-05T02:40:37.442Z,64.19
2023-03-05T02:43:08.481Z,64.24
2023-03-05T02:45:38.130Z,64.28
2023-03-05T02:48:09.020Z,64.41
2023-03-05T02:50:40.816Z,64.34
2023-03-05T02:53:11.491Z,64.49
2023-03-05T02:55:42.433Z,64.49
2023-03-05T02:58:13.085Z,64.44
2023-03-05T03:00:43.885Z,64.65
2023-03-05T03:03:14.935Z,64.59
2023-03-05T03:05:46.031Z,64.77
2023-03-05T03:08:16.748Z,64.76
2023-03-05T03:10:47.484Z,64.86
2023-03-05T03:13:18.130Z,64.78
2023-03-05T03:15:48.801Z,64.83
2023-03-05T03:18:19.497Z,64.92
2023-03-05T03:20:50.247Z,64.97
2023-03-05T03:23:20.844Z,64.93
2023-03-05T03:25:51.476Z,65.05
2023-03-05T03:28:22.322Z,65.02
2023-03-05T03:30:53.125Z,65.04
2023-03-05T03:33:23.921Z,65.12
2023-03-05T03:35:54.998Z,65.11
2023-03-05T03:38:24.087Z,65.13
2023-03-05T03:40:54.717Z,65.18
2023-03-05T03:43:25.366Z,65.26
2023-03-05T03:45:56.118Z,65.15
2023-03-05T03:48:26.895Z,65.23
2023-03-05T03:50:57.578Z,65.31
2023-03-05T03:53:28.231Z,65.09
2023-03-05T03:56:01.097Z,65.10
2023-03-05T03:58:31.952Z,65.26
2023-03-05T04:01:02.634Z,65.20
2023-03-05T04:03:33.350Z,65.24
2023-03-05T04:06:04.295Z,65.38
2023-03-05T04:08:34.903Z,65.46
2023-03-05T04:11:05.947Z,65.53
2023-03-05T04:13:35.161Z,65.68
2023-03-05T04:16:08.056Z,65.62
2023-03-05T04:18:38.873Z,65.78
2023-03-05T04:21:09.692Z,65.69
2023-03-05T04:23:40.680Z,65.74
2023-03-05T04:26:11.360Z,65.69
2023-03-05T04:28:42.003Z,65.72
2023-03-05T04:31:12.743Z,65.52
2023-03-05T04:33:43.414Z,65.66
2023-03-05T04:36:14.069Z,65.63
2023-03-05T04:38:45.080Z,65.57
2023-03-05T04:41:15.790Z,65.72
2023-03-05T04:43:46.416Z,65.64
2023-03-05T04:46:17.328Z,65.67
2023-03-05T04:48:48.097Z,65.58
2023-03-05T04:51:18.766Z,65.66
2023-03-05T04:53:49.388Z,65.50
2023-03-05T04:56:20.078Z,65.43
2023-03-05T04:58:50.726Z,65.25
2023-03-05T05:01:21.880Z,65.19
2023-03-05T05:03:52.601Z,65.32
2023-03-05T05:06:23.257Z,65.51
2023-03-05T05:08:53.885Z,65.10
2023-03-05T05:11:24.648Z,64.95
2023-03-05T05:13:55.270Z,64.76
2023-03-05T05:16:25.935Z,64.81
2023-03-05T05:18:56.627Z,64.66
2023-03-05T05:21:27.319Z,64.66
2023-03-05T05:23:58.120Z,64.62
2023-03-05T05:26:28.953Z,64.59
2023-03-05T05:28:59.654Z,64.62
2023-03-05T05:31:30.440Z,64.68
2023-03-05T05:34:01.404Z,64.62
2023-03-05T05:36:32.251Z,64.63
2023-03-05T05:39:02.908Z,64.94
2023-03-05T05:41:33.715Z,64.77
2023-03-05T05:44:04.526Z,64.89
2023-03-05T05:46:35.604Z,64.99
2023-03-05T05:49:06.314Z,65.49
2023-03-05T05:51:37.039Z,65.78
2023-03-05T05:54:07.903Z,65.96
2023-03-05T05:56:39.537Z,66.38
2023-03-05T05:59:11.511Z,66.17
2023-03-05T06:01:42.240Z,66.45
2023-03-05T06:04:13.264Z,66.79
2023-03-05T06:06:43.968Z,66.87
2023-03-05T06:09:14.639Z,67.21
2023-03-05T06:11:45.367Z,67.29
2023-03-05T06:14:16.059Z,67.62
2023-03-05T06:16:46.803Z,67.83
2023-03-05T06:19:17.781Z,68.06
2023-03-05T06:21:48.461Z,68.30
2023-03-05T06:24:19.115Z,68.48
2023-03-05T06:26:49.811Z,68.64
2023-03-05T06:29:20.458Z,68.93
2023-03-05T06:31:51.139Z,69.02
2023-03-05T06:34:21.847Z,68.95
2023-03-05T06:36:52.681Z,69.05
2023-03-05T06:39:23.309Z,69.08
2023-03-05T06:41:54.020Z,69.21
2023-03-05T06:44:24.766Z,69.38
2023-03-05T06:46:55.505Z,69.52
2023-03-05T06:49:26.169Z,69.61
2023-03-05T06:51:56.897Z,69.63
2023-03-05T06:54:27.558Z,69.80
2023-03-05T06:56:58.261Z,69.88
2023-03-05T06:59:29.040Z,69.87
2023-03-05T07:01:59.744Z,70.05
2023-03-05T07:04:30.399Z,70.64
2023-03-05T07:07:00.995Z,70.35
2023-03-05T07:09:31.630Z,70.50
2023-03-05T07:12:02.284Z,70.74
2023-03-05T07:14:32.989Z,70.59
2023-03-05T07:17:03.726Z,70.55
2023-03-05T07:19:34.406Z,70.54
2023-03-05T07:22:08.779Z,70.36
2023-03-05T07:24:39.938Z,70.66
2023-03-05T07:27:11.103Z,70.41
2023-03-05T07:29:41.777Z,70.26
2023-03-05T07:32:12.492Z,70.25
2023-03-05T07:34:43.181Z,69.99
2023-03-05T07:37:14.891Z,69.96
2023-03-05T07:39:47.231Z,69.87
2023-03-05T07:42:18.130Z,69.75
2023-03-05T07:44:49.665Z,69.46
2023-03-05T07:47:20.688Z,69.29
2023-03-05T07:49:53.553Z,69.07
2023-03-05T07:52:24.251Z,68.69
2023-03-05T07:54:54.929Z,68.79
2023-03-05T07:57:25.697Z,68.53
2023-03-05T07:59:56.517Z,68.48
2023-03-05T08:02:27.319Z,68.49
2023-03-05T08:04:58.167Z,68.24
2023-03-05T08:07:28.843Z,68.03
2023-03-05T08:09:59.489Z,67.86
2023-03-05T08:12:30.872Z,67.96
2023-03-05T08:15:01.598Z,67.89
2023-03-05T08:17:32.272Z,67.99
2023-03-05T08:20:02.933Z,68.17
2023-03-05T08:22:34.506Z,68.16
2023-03-05T08:25:08.278Z,67.75
2023-03-05T08:27:41.060Z,67.71
2023-03-05T08:30:16.970Z,67.56
2023-03-05T08:32:48.334Z,67.30
2023-03-05T08:35:19.684Z,66.65
2023-03-05T08:37:50.903Z,66.80
2023-03-05T08:40:21.562Z,66.70
2023-03-05T08:42:52.326Z,66.56
2023-03-05T08:45:23.148Z,65.76
2023-03-05T08:47:54.041Z,65.63
2023-03-05T08:50:24.786Z,65.41
2023-03-05T08:53:04.662Z,65.51
2023-03-05T08:55:35.409Z,65.54
2023-03-05T08:58:06.278Z,65.69
2023-03-05T09:00:36.969Z,65.74
2023-03-05T09:03:07.847Z,65.45
2023-03-05T09:05:39.217Z,64.74
2023-03-05T09:08:10.229Z,64.28
2023-03-05T09:10:42.586Z,63.03
2023-03-05T09:13:13.388Z,64.25
2023-03-05T09:15:44.096Z,64.06
2023-03-05T09:18:14.813Z,63.98
2023-03-05T09:20:45.480Z,63.17
2023-03-05T09:23:16.219Z,63.39
2023-03-05T09:25:46.838Z,62.57
2023-03-05T09:28:17.573Z,62.60
2023-03-05T09:30:48.305Z,62.91
2023-03-05T09:33:19.180Z,63.18
2023-03-05T09:35:50.000Z,61.95
2023-03-05T09:38:20.742Z,62.24
2023-03-05T09:40:59.195Z,63.19
2023-03-05T09:43:44.199Z,62.32
2023-03-05T09:46:31.932Z,61.23
2023-03-05T09:49:14.790Z,61.85
2023-03-05T09:51:49.690Z,61.62
2023-03-05T09:54:23.437Z,60.78
2023-03-05T09:56:58.257Z,60.73
2023-03-05T09:59:34.007Z,60.51
2023-03-05T10:02:15.317Z,60.60
2023-03-05T10:04:49.078Z,60.06
2023-03-05T10:07:25.658Z,60.69
2023-03-05T10:10:00.507Z,60.36
2023-03-05T10:12:40.015Z,58.88
2023-03-05T10:15:14.448Z,58.95
2023-03-05T10:17:58.806Z,59.21
2023-03-05T10:20:54.047Z,57.68
2023-03-05T10:23:33.343Z,56.94
2023-03-05T10:26:21.684Z,56.63
2023-03-05T10:29:04.914Z,56.62
2023-03-05T10:31:50.558Z,55.78
2023-03-05T10:34:44.125Z,57.08
2023-03-05T10:37:35.613Z,57.45
2023-03-05T10:40:17.546Z,58.19
2023-03-05T10:43:03.684Z,58.15
2023-03-05T10:45:39.107Z,58.40
2023-03-05T10:48:21.308Z,57.78
2023-03-05T10:50:56.340Z,58.13
2023-03-05T10:53:32.445Z,58.84
2023-03-05T10:56:04.992Z,58.09
2023-03-05T10:58:35.613Z,58.52
2023-03-05T11:01:20.473Z,59.19
2023-03-05T11:04:02.566Z,58.96
2023-03-05T11:06:36.920Z,59.20
2023-03-05T11:09:27.674Z,58.24
2023-03-05T11:12:17.254Z,57.91
2023-03-05T11:15:02.208Z,57.91
2023-03-05T11:17:35.555Z,57.56
2023-03-05T11:20:34.595Z,57.67
2023-03-05T11:23:10.680Z,57.81
2023-03-05T11:25:59.814Z,57.69
2023-03-05T11:28:34.061Z,58.05
2023-03-05T11:31:08.265Z,58.82
2023-03-05T11:33:39.107Z,58.33
2023-03-05T11:36:22.217Z,57.72
2023-03-05T11:38:58.732Z,57.16
2023-03-05T11:41:34.095Z,56.91
2023-03-05T11:44:12.457Z,57.54
2023-03-05T11:46:47.634Z,56.20
2023-03-05T11:49:24.178Z,55.25
2023-03-05T11:52:00.556Z,53.06
2023-03-05T11:54:39.377Z,53.36
2023-03-05T11:57:13.597Z,53.38
2023-03-05T11:59:45.386Z,51.24
2023-03-05T12:02:20.712Z,52.51
2023-03-05T12:04:52.064Z,53.06
2023-03-05T12:07:28.879Z,53.37
2023-03-05T12:09:59.549Z,54.42
2023-03-05T12:12:46.993Z,54.13
2023-03-05T12:15:38.773Z,55.05
2023-03-05T12:18:18.819Z,55.42
2023-03-05T12:20:56.404Z,59.28
2023-03-05T12:23:27.174Z,61.67
2023-03-05T12:25:59.020Z,62.38
2023-03-05T12:28:57.045Z,62.52
2023-03-05T12:31:44.631Z,63.65
2023-03-05T12:34:45.423Z,63.61
2023-03-05T12:37:52.827Z,63.13
2023-03-05T12:40:34.338Z,62.40
2023-03-05T12:43:06.465Z,62.12
2023-03-05T12:45:40.416Z,61.82
2023-03-05T12:48:46.663Z,61.40
2023-03-05T12:51:31.427Z,61.72
2023-03-05T12:54:26.889Z,60.83
2023-03-05T12:56:59.655Z,59.95
2023-03-05T12:59:42.492Z,59.26
2023-03-05T13:02:26.518Z,58.35
2023-03-05T13:05:01.261Z,58.12
2023-03-05T13:07:32.056Z,56.81
2023-03-05T13:10:02.745Z,57.35
2023-03-05T13:13:01.923Z,57.93
2023-03-05T13:15:33.684Z,57.89
2023-03-05T13:18:05.926Z,57.86
2023-03-05T13:20:39.662Z,57.63
2023-03-05T13:23:24.802Z,57.80
2023-03-05T13:26:09.738Z,58.24
2023-03-05T13:28:40.719Z,58.24
2023-03-05T13:31:17.709Z,58.28
2023-03-05T13:33:56.976Z,57.94
2023-03-05T13:36:28.450Z,57.21
2023-03-05T13:38:59.392Z,57.10
2023-03-05T13:41:29.189Z,57.37
2023-03-05T13:44:01.401Z,57.03
2023-03-05T13:46:34.484Z,57.76
2023-03-05T13:49:23.603Z,57.69
2023-03-05T13:51:56.286Z,57.32
2023-03-05T13:54:28.155Z,57.39
2023-03-05T13:57:00.883Z,57.22
2023-03-05T13:59:33.470Z,57.18
2023-03-05T14:02:15.779Z,56.86
2023-03-05T14:04:47.406Z,56.19
2023-03-05T14:07:31.397Z,56.39
2023-03-05T14:10:02.409Z,54.74
2023-03-05T14:12:36.347Z,55.00
2023-03-05T14:15:22.193Z,54.02
2023-03-05T14:17:53.082Z,54.37
2023-03-05T14:20:32.250Z,54.35
2023-03-05T14:23:26.726Z,54.50
2023-03-05T14:26:29.415Z,53.45
2023-03-05T14:29:03.053Z,53.20
2023-03-05T14:31:38.762Z,54.14
2023-03-05T14:34:17.901Z,53.30
2023-03-05T14:36:50.685Z,53.03
2023-03-05T14:39:46.307Z,53.77
2023-03-05T14:42:32.167Z,53.66
2023-03-05T14:45:10.229Z,53.33
2023-03-05T14:47:41.157Z,54.01
2023-03-05T14:50:16.499Z,54.11
2023-03-05T14:52:49.604Z,53.99
2023-03-05T14:55:22.732Z,54.18
2023-03-05T14:57:57.546Z,53.69
2023-03-05T15:00:29.401Z,54.13
2023-03-05T15:03:00.236Z,53.38
2023-03-05T15:05:31.131Z,52.74
2023-03-05T15:08:02.107Z,53.28
2023-03-05T15:10:31.236Z,53.03
2023-03-05T15:13:01.902Z,53.65
2023-03-05T15:15:32.934Z,54.03
2023-03-05T15:18:02.130Z,53.90
2023-03-05T15:20:32.923Z,53.52
2023-03-05T15:23:06.123Z,53.42
2023-03-05T15:25:37.393Z,54.06
2023-03-05T15:28:08.115Z,54.70
2023-03-05T15:30:40.997Z,54.93
2023-03-05T15:33:13.484Z,55.27
2023-03-05T15:35:44.756Z,55.74
2023-03-05T15:38:15.924Z,55.43
2023-03-05T15:40:46.911Z,55.54
2023-03-05T15:43:18.335Z,55.93
2023-03-05T15:45:49.355Z,56.13
2023-03-05T15:48:20.045Z,56.19
2023-03-05T15:50:50.718Z,56.04
2023-03-05T15:53:21.452Z,55.90
2023-03-05T15:55:52.133Z,56.06
2023-03-05T15:58:22.944Z,56.23
2023-03-05T16:00:54.207Z,56.22
2023-03-05T16:03:23.370Z,56.48
2023-03-05T16:05:54.059Z,56.55
2023-03-05T16:08:24.864Z,56.71
2023-03-05T16:10:55.673Z,56.52
2023-03-05T16:13:26.721Z,56.72
2023-03-05T16:15:59.088Z,56.65
2023-03-05T16:18:32.522Z,56.96
2023-03-05T16:21:03.741Z,56.90
2023-03-05T16:23:34.453Z,56.95
2023-03-05T16:26:05.506Z,57.00
2023-03-05T16:28:34.709Z,57.06
2023-03-05T16:31:05.724Z,57.15
2023-03-05T16:33:36.501Z,57.21
2023-03-05T16:36:22.429Z,57.33
2023-03-05T16:38:55.315Z,57.50
2023-03-05T16:41:26.636Z,57.40
2023-03-05T16:43:58.768Z,57.36
2023-03-05T16:46:30.394Z,57.36
2023-03-05T16:49:01.122Z,57.14
2023-03-05T16:51:32.471Z,57.42
2023-03-05T16:54:01.750Z,57.62
2023-03-05T16:56:33.150Z,57.90
2023-03-05T16:59:04.298Z,57.89
2023-03-05T17:01:55.765Z,57.83
2023-03-05T17:04:26.912Z,58.01
2023-03-05T17:06:57.999Z,58.11
2023-03-05T17:09:28.791Z,58.23
2023-03-05T17:11:59.420Z,58.20
2023-03-05T17:14:30.223Z,58.26
2023-03-05T17:17:00.856Z,58.28
2023-03-05T17:19:31.536Z,58.21
2023-03-05T17:22:02.659Z,58.04
2023-03-05T17:24:32.499Z,58.28
2023-03-05T17:27:03.257Z,58.38
2023-03-05T17:29:34.090Z,58.24
2023-03-05T17:32:05.228Z,58.18
2023-03-05T17:34:36.602Z,58.53
2023-03-05T17:37:07.503Z,58.53
2023-03-05T17:39:39.342Z,58.58
2023-03-05T17:42:10.051Z,58.68
2023-03-05T17:44:40.944Z,58.76
2023-03-05T17:47:11.772Z,58.82
2023-03-05T17:49:43.209Z,58.70
2023-03-05T17:52:14.003Z,58.83
2023-03-05T17:54:45.084Z,59.02
2023-03-05T17:57:16.024Z,59.21
2023-03-05T17:59:46.758Z,59.11
2023-03-05T18:02:17.614Z,59.09
2023-03-05T18:04:48.558Z,59.26
2023-03-05T18:07:19.469Z,59.17
2023-03-05T18:09:50.165Z,59.35
2023-03-05T18:12:20.899Z,59.56
2023-03-05T18:14:51.744Z,59.79
2023-03-05T18:17:22.581Z,59.80
2023-03-05T18:19:52.067Z,59.76
2023-03-05T18:22:23.244Z,59.96
2023-03-05T18:24:54.120Z,60.04
2023-03-05T18:27:24.948Z,60.16
2023-03-05T18:29:54.538Z,60.25
2023-03-05T18:32:25.391Z,60.47
2023-03-05T18:34:56.326Z,60.44
2023-03-05T18:37:27.452Z,60.51
2023-03-05T18:39:58.231Z,60.50
2023-03-05T18:42:29.012Z,60.57
2023-03-05T18:44:59.744Z,60.71
2023-03-05T18:47:30.449Z,60.89
2023-03-05T18:50:01.286Z,60.94
2023-03-05T18:52:32.339Z,60.98
2023-03-05T18:55:01.666Z,61.22
2023-03-05T18:57:32.400Z,61.28
2023-03-05T19:00:03.464Z,61.41
2023-03-05T19:02:34.380Z,61.38
2023-03-05T19:05:03.908Z,61.56
2023-03-05T19:07:34.665Z,61.73
2023-03-05T19:13:35.876Z,61.87
2023-03-05T19:16:12.549Z,62.04
2023-03-05T19:19:27.515Z,61.99
2023-03-05T19:21:58.854Z,62.14
2023-03-05T19:24:31.389Z,62.23
2023-03-05T19:27:02.153Z,62.32
2023-03-05T19:29:33.064Z,62.51
2023-03-05T19:32:02.483Z,62.54
2023-03-05T19:34:33.882Z,62.67
2023-03-05T19:37:05.244Z,62.74
2023-03-05T19:39:36.077Z,62.88
2023-03-05T19:42:09.012Z,62.83
2023-03-05T19:44:39.908Z,62.81
2023-03-05T19:47:10.668Z,62.64
2023-03-05T19:49:41.357Z,62.77
2023-03-05T19:52:12.083Z,63.05
2023-03-05T19:54:42.997Z,63.00
2023-03-05T19:57:13.648Z,63.11
2023-03-05T19:59:44.372Z,63.22
2023-03-05T20:02:15.315Z,63.23
2023-03-05T20:04:45.981Z,63.40
2023-03-05T20:07:17.010Z,63.39
2023-03-05T20:09:47.742Z,63.59
2023-03-05T20:12:20.802Z,63.72
2023-03-05T20:14:51.515Z,63.70
2023-03-05T20:17:22.237Z,63.74
2023-03-05T20:19:52.916Z,63.79
2023-03-05T20:22:23.583Z,63.87
2023-03-05T20:24:54.244Z,64.15
2023-03-05T20:27:25.238Z,64.17
2023-03-05T20:29:55.970Z,64.12
2023-03-05T20:32:26.784Z,64.21
2023-03-05T20:34:57.405Z,64.31
2023-03-05T20:38:12.141Z,64.34
2023-03-05T20:40:43.691Z,64.34
2023-03-05T20:43:14.377Z,64.28
2023-03-05T20:45:45.379Z,64.28
2023-03-05T20:48:16.275Z,64.36
2023-03-05T20:50:47.269Z,64.26
2023-03-05T20:53:18.244Z,64.35
2023-03-05T20:55:49.118Z,64.37
2023-03-05T20:58:19.817Z,64.55
2023-03-05T21:00:50.444Z,64.28
2023-03-05T21:03:21.223Z,64.29
2023-03-05T21:05:51.992Z,64.60
2023-03-05T21:08:22.691Z,64.67
2023-03-05T21:10:53.425Z,64.54
2023-03-05T21:13:24.065Z,64.71
2023-03-05T21:15:54.886Z,64.90
2023-03-05T21:18:25.897Z,64.83
2023-03-05T21:20:56.671Z,64.95
2023-03-05T21:23:27.405Z,64.96
2023-03-05T21:25:58.180Z,64.79
2023-03-05T21:28:29.914Z,64.76
2023-03-05T21:31:08.356Z,64.74
2023-03-05T21:33:39.524Z,64.68
2023-03-05T21:36:12.135Z,64.95
2023-03-05T21:38:42.820Z,64.96
2023-03-05T21:41:14.213Z,64.87
2023-03-05T21:43:44.876Z,64.96
2023-03-05T21:46:15.925Z,65.01
2023-03-05T21:48:46.594Z,64.81
2023-03-05T21:51:43.356Z,64.96
2023-03-05T21:54:14.021Z,64.95
2023-03-05T21:56:44.788Z,65.06
2023-03-05T21:59:15.458Z,65.02
2023-03-05T22:01:46.116Z,65.14
2023-03-05T22:04:16.834Z,65.25
2023-03-05T22:06:47.491Z,65.25
2023-03-05T22:09:18.302Z,65.34
2023-03-05T22:11:49.138Z,65.13
2023-03-05T22:14:19.896Z,65.18
2023-03-05T22:16:50.656Z,65.27
2023-03-05T22:19:21.816Z,65.27
2023-03-05T22:21:50.921Z,65.25
2023-03-05T22:24:21.677Z,65.44
2023-03-05T22:26:52.410Z,65.54
2023-03-05T22:29:23.231Z,65.54
2023-03-05T22:31:55.436Z,65.56
2023-03-05T22:34:26.193Z,65.72
2023-03-05T22:36:56.921Z,65.54
2023-03-05T22:39:27.652Z,65.62
2023-03-05T22:41:58.301Z,65.71
2023-03-05T22:44:29.045Z,65.72
2023-03-05T22:46:59.701Z,65.54
2023-03-05T22:49:30.377Z,65.68
2023-03-05T22:52:01.012Z,65.74
2023-03-05T22:54:31.627Z,65.86
2023-03-05T22:57:02.617Z,65.85
2023-03-05T22:59:33.282Z,65.82
2023-03-05T23:02:04.074Z,65.83
2023-03-05T23:04:48.349Z,65.99
2023-03-05T23:07:20.743Z,65.89
2023-03-05T23:09:56.162Z,65.87
2023-03-05T23:12:29.631Z,65.83
2023-03-05T23:15:02.800Z,65.94
2023-03-05T23:17:33.456Z,65.89
2023-03-05T23:20:04.746Z,66.05
2023-03-05T23:22:35.774Z,66.02
2023-03-05T23:25:05.503Z,66.05
2023-03-05T23:27:36.133Z,66.15
2023-03-05T23:30:18.979Z,66.24
2023-03-05T23:32:52.494Z,66.32
2023-03-05T23:35:24.494Z,66.46
2023-03-05T23:37:56.605Z,66.37
2023-03-05T23:40:35.972Z,66.52
2023-03-05T23:43:06.784Z,66.53
2023-03-05T23:45:37.976Z,66.42
2023-03-05T23:48:09.018Z,66.56
2023-03-05T23:50:41.404Z,66.50
2023-03-05T23:53:15.055Z,66.63
2023-03-05T23:55:46.168Z,66.60
2023-03-05T23:58:15.678Z,66.59
